createdAt,value
2022-09-14T00:01:24.705Z,1.98
2022-09-14T00:04:16.778Z,1.60
2022-09-14T00:07:07.460Z,1.50
2022-09-14T00:09:57.016Z,1.30
2022-09-14T00:12:46.022Z,1.58
2022-09-14T00:15:37.663Z,1.33
2022-09-14T00:18:26.246Z,1.38
2022-09-14T00:21:15.323Z,1.38
2022-09-14T00:24:06.476Z,1.10
2022-09-14T00:26:56.005Z,1.02
2022-09-14T00:29:46.671Z,1.10
2022-09-14T00:32:35.993Z,1.13
2022-09-14T00:35:24.594Z,0.98
2022-09-14T00:38:13.555Z,1.00
2022-09-14T00:41:06.126Z,0.95
2022-09-14T00:44:03.047Z,0.80
2022-09-14T00:46:55.189Z,0.50
2022-09-14T00:49:45.381Z,0.93
2022-09-14T00:52:36.800Z,0.55
2022-09-14T00:55:26.207Z,0.73
2022-09-14T00:58:16.883Z,0.68
2022-09-14T01:01:06.404Z,0.90
2022-09-14T01:03:56.076Z,0.70
2022-09-14T01:06:53.747Z,0.90
2022-09-14T01:09:52.241Z,0.80
2022-09-14T01:12:51.218Z,0.60
2022-09-14T01:15:51.973Z,0.73
2022-09-14T01:18:46.172Z,0.93
2022-09-14T01:21:38.706Z,0.90
2022-09-14T01:24:34.603Z,0.80
2022-09-14T01:27:36.685Z,0.80
2022-09-14T01:30:25.841Z,1.95
2022-09-14T01:33:19.274Z,1.10
2022-09-14T01:36:11.758Z,1.02
2022-09-14T01:39:01.097Z,1.10
2022-09-14T01:41:51.898Z,1.00
2022-09-14T01:44:45.667Z,0.95
2022-09-14T01:47:39.878Z,1.00
2022-09-14T01:50:34.204Z,0.75
2022-09-14T01:53:29.176Z,1.00
2022-09-14T01:56:21.917Z,0.95
2022-09-14T01:59:15.521Z,0.98
2022-09-14T02:02:10.642Z,1.02
2022-09-14T02:05:04.626Z,0.90
2022-09-14T02:07:53.853Z,0.80
2022-09-14T02:10:43.815Z,0.80
2022-09-14T02:13:33.248Z,1.00
2022-09-14T02:16:23.980Z,0.95
2022-09-14T02:19:14.678Z,1.15
2022-09-14T02:22:04.128Z,1.20
2022-09-14T02:24:54.033Z,0.85
2022-09-14T02:27:43.288Z,0.68
2022-09-14T02:30:40.631Z,0.85
2022-09-14T02:33:40.395Z,0.80
2022-09-14T02:36:41.584Z,1.05
2022-09-14T02:39:41.563Z,0.75
2022-09-14T02:42:38.506Z,1.00
2022-09-14T02:45:36.208Z,0.80
2022-09-14T02:48:34.782Z,0.85
2022-09-14T02:51:33.034Z,1.00
2022-09-14T02:54:26.962Z,0.77
2022-09-14T02:57:15.681Z,1.00
2022-09-14T03:00:04.686Z,0.82
2022-09-14T03:02:53.229Z,0.85
2022-09-14T03:05:42.619Z,1.00
2022-09-14T03:08:33.131Z,1.27
2022-09-14T03:11:22.549Z,1.08
2022-09-14T03:14:11.944Z,0.85
2022-09-14T03:17:01.232Z,0.73
2022-09-14T03:19:50.174Z,1.08
2022-09-14T03:22:39.382Z,0.70
2022-09-14T03:25:30.572Z,1.23
2022-09-14T03:28:19.331Z,0.70
2022-09-14T03:31:10.785Z,0.98
2022-09-14T03:34:01.477Z,0.82
2022-09-14T03:36:50.749Z,1.48
2022-09-14T03:39:39.676Z,1.15
2022-09-14T03:42:31.212Z,1.45
2022-09-14T03:45:22.050Z,0.95
2022-09-14T03:48:11.970Z,1.15
2022-09-14T03:51:02.669Z,1.08
2022-09-14T03:53:51.706Z,0.73
2022-09-14T03:56:40.931Z,1.70
2022-09-14T03:59:31.631Z,1.30
2022-09-14T04:02:20.609Z,1.60
2022-09-14T04:05:10.264Z,0.80
2022-09-14T04:07:59.352Z,1.20
2022-09-14T04:10:48.441Z,1.13
2022-09-14T04:13:37.815Z,1.25
2022-09-14T04:16:29.134Z,1.40
2022-09-14T04:19:19.077Z,1.27
2022-09-14T04:22:09.030Z,0.98
2022-09-14T04:24:57.873Z,1.23
2022-09-14T04:27:59.012Z,2.05
2022-09-14T04:30:59.564Z,1.55
2022-09-14T04:33:51.541Z,1.27
2022-09-14T04:36:41.273Z,1.30
2022-09-14T04:39:30.453Z,1.30
2022-09-14T04:42:19.804Z,1.38
2022-09-14T04:45:09.276Z,1.48
2022-09-14T04:47:58.320Z,1.33
2022-09-14T04:50:49.034Z,1.75
2022-09-14T04:53:39.427Z,1.30
2022-09-14T04:56:30.040Z,1.30
2022-09-14T04:59:19.588Z,1.20
2022-09-14T05:02:08.737Z,1.60
2022-09-14T05:04:58.882Z,1.73
2022-09-14T05:07:49.523Z,1.48
2022-09-14T05:10:39.007Z,1.98
2022-09-14T05:13:28.011Z,1.95
2022-09-14T05:16:19.645Z,1.35
2022-09-14T05:19:12.227Z,1.60
2022-09-14T05:22:01.070Z,1.70
2022-09-14T05:24:51.672Z,1.95
2022-09-14T05:27:40.753Z,1.63
2022-09-14T15:28:55.546Z,1.05
2022-09-14T15:31:44.701Z,2.08
2022-09-14T15:34:33.654Z,1.10
2022-09-14T15:37:22.595Z,1.30
2022-09-14T15:40:12.603Z,0.98
2022-09-14T15:43:01.594Z,1.00
2022-09-14T15:45:52.212Z,1.95
2022-09-14T15:48:42.386Z,2.45
2022-09-14T15:51:33.408Z,3.03
2022-09-14T15:54:24.676Z,1.70
2022-09-14T15:57:13.506Z,1.50
2022-09-14T16:00:02.921Z,1.50
2022-09-14T16:02:53.533Z,1.30
2022-09-14T16:05:42.854Z,1.83
2022-09-14T16:08:31.961Z,1.50
2022-09-14T16:11:21.270Z,1.48
2022-09-14T16:14:11.800Z,2.20
2022-09-14T16:17:02.450Z,1.48
2022-09-14T16:19:53.097Z,1.52
2022-09-14T16:22:42.618Z,1.35
2022-09-14T16:25:32.001Z,1.50
2022-09-14T16:28:20.763Z,1.17
2022-09-14T16:31:11.916Z,1.05
2022-09-14T16:34:03.939Z,1.23
2022-09-14T16:36:55.491Z,1.05
2022-09-14T16:39:44.787Z,1.52
2022-09-14T16:42:33.622Z,1.25
2022-09-14T16:45:22.662Z,1.13
2022-09-14T16:48:11.546Z,0.82
2022-09-14T16:51:02.263Z,1.10
2022-09-14T16:53:53.504Z,1.65
2022-09-14T16:56:43.135Z,0.70
2022-09-14T16:59:32.970Z,1.50
2022-09-14T17:02:22.408Z,1.50
2022-09-14T17:05:12.264Z,0.80
2022-09-14T17:08:01.534Z,1.00
2022-09-14T17:10:53.420Z,1.00
2022-09-14T17:13:43.074Z,1.10
2022-09-14T17:16:32.431Z,1.40
2022-09-14T17:19:21.258Z,1.30
2022-09-14T17:22:10.821Z,1.10
2022-09-14T17:24:59.920Z,1.42
2022-09-14T17:27:51.024Z,1.10
2022-09-14T17:30:40.333Z,1.23
2022-09-14T17:33:30.621Z,1.63
2022-09-14T17:36:19.343Z,1.63
2022-09-14T17:39:12.009Z,1.17
2022-09-14T17:42:01.878Z,1.17
2022-09-14T17:44:52.624Z,1.65
2022-09-14T17:47:41.981Z,1.33
2022-09-14T17:50:30.872Z,2.30
2022-09-14T17:53:21.055Z,1.55
2022-09-14T17:56:13.507Z,1.50
2022-09-14T17:59:05.133Z,1.60
2022-09-14T18:01:56.497Z,1.50
2022-09-14T18:04:48.617Z,2.60
2022-09-14T18:07:37.841Z,2.28
2022-09-14T18:10:27.212Z,1.95
2022-09-14T18:13:15.947Z,1.70
2022-09-14T18:16:04.822Z,2.10
2022-09-14T18:18:57.544Z,1.50
2022-09-14T18:21:52.188Z,1.48
2022-09-14T18:24:41.685Z,2.40
2022-09-14T18:27:30.627Z,1.58
2022-09-14T18:30:19.888Z,1.67
2022-09-14T18:33:09.272Z,1.70
2022-09-14T18:36:00.122Z,2.08
2022-09-14T18:38:51.527Z,1.65
2022-09-14T18:41:41.061Z,2.03
2022-09-14T18:44:29.711Z,2.20
2022-09-14T18:47:21.710Z,1.55
2022-09-14T18:50:11.792Z,2.15
2022-09-14T18:53:02.036Z,1.70
2022-09-14T18:55:51.279Z,2.00
2022-09-14T18:58:45.124Z,2.35
2022-09-14T19:01:35.493Z,1.92
2022-09-14T19:04:24.218Z,1.63
2022-09-14T19:07:12.972Z,2.22
2022-09-14T19:10:03.021Z,1.42
2022-09-14T19:12:51.675Z,1.77
2022-09-14T19:15:41.754Z,1.70
2022-09-14T19:18:30.589Z,1.70
2022-09-14T19:21:23.683Z,1.58
2022-09-14T19:24:13.705Z,1.65
2022-09-14T19:27:03.800Z,1.75
2022-09-14T19:29:53.739Z,1.55
2022-09-14T19:32:42.206Z,1.70
2022-09-14T19:35:31.874Z,2.10
2022-09-14T19:38:20.743Z,1.50
2022-09-14T19:41:09.783Z,1.60
2022-09-14T19:44:00.423Z,1.98
2022-09-14T19:46:49.243Z,1.75
2022-09-14T19:49:38.079Z,1.80
2022-09-14T19:52:27.617Z,1.60
2022-09-14T19:55:16.882Z,1.63
2022-09-14T19:58:05.972Z,1.55
2022-09-14T20:00:57.492Z,1.60
2022-09-14T20:03:46.967Z,1.48
2022-09-14T20:06:38.375Z,1.95
2022-09-14T20:09:27.346Z,1.60
2022-09-14T20:12:16.682Z,1.92
2022-09-14T20:15:06.015Z,1.30
2022-09-14T20:17:57.903Z,1.88
2022-09-14T20:20:47.002Z,1.80
2022-09-14T20:23:36.035Z,1.55
2022-09-14T20:26:26.285Z,1.50
2022-09-14T20:29:16.584Z,1.60
2022-09-14T20:32:06.745Z,1.73
2022-09-14T20:34:57.428Z,1.65
2022-09-14T20:37:46.385Z,1.48
2022-09-14T20:40:36.025Z,1.75
2022-09-14T20:43:24.996Z,1.35
2022-09-14T20:46:15.658Z,1.40
2022-09-14T20:49:06.431Z,1.70
2022-09-14T20:51:57.537Z,1.50
2022-09-14T20:54:46.993Z,1.65
2022-09-14T20:57:35.731Z,1.58
2022-09-14T21:00:24.754Z,1.73
2022-09-14T21:03:14.638Z,1.63
2022-09-14T21:06:05.963Z,2.10
2022-09-14T21:08:57.522Z,1.38
2022-09-14T21:11:47.518Z,1.67
2022-09-14T21:14:36.408Z,1.52
2022-09-14T21:17:25.840Z,1.77
2022-09-14T21:20:15.186Z,1.63
2022-09-14T21:23:04.808Z,1.20
2022-09-14T21:25:59.033Z,1.70
2022-09-14T21:28:48.236Z,1.75
2022-09-14T21:31:38.815Z,1.40
2022-09-14T21:34:28.003Z,1.83
2022-09-14T21:37:17.511Z,1.50
2022-09-14T21:40:06.942Z,1.40
2022-09-14T21:42:57.399Z,1.42
2022-09-14T21:45:46.667Z,1.70
2022-09-14T21:48:36.264Z,2.20
2022-09-14T21:51:27.193Z,1.55
2022-09-14T21:54:17.206Z,1.60
2022-09-14T21:57:06.877Z,1.60
2022-09-14T21:59:57.601Z,1.23
2022-09-14T22:02:46.736Z,1.40
2022-09-14T22:05:35.780Z,1.60
2022-09-14T22:08:24.864Z,1.65
2022-09-14T22:11:18.211Z,1.80
2022-09-14T22:14:13.417Z,1.50
2022-09-14T22:17:04.540Z,2.08
2022-09-14T22:19:54.998Z,2.20
2022-09-14T22:22:45.172Z,2.38
2022-09-14T22:25:34.148Z,1.58
2022-09-14T22:28:23.024Z,1.38
2022-09-14T22:31:12.717Z,1.70
2022-09-14T22:34:03.201Z,1.35
2022-09-14T22:36:52.125Z,1.90
2022-09-14T22:39:40.669Z,1.80
2022-09-14T22:42:31.779Z,2.00
2022-09-14T22:45:21.013Z,1.88
2022-09-14T22:48:09.481Z,1.70
2022-09-14T22:51:01.237Z,1.58
2022-09-14T22:53:50.318Z,1.70
2022-09-14T22:56:40.690Z,1.75
2022-09-14T22:59:29.990Z,2.65
2022-09-14T23:02:19.000Z,1.52
2022-09-14T23:05:09.283Z,2.17
2022-09-14T23:08:00.049Z,1.45
2022-09-14T23:10:49.963Z,1.55
2022-09-14T23:13:40.083Z,1.60
2022-09-14T23:16:31.082Z,1.77
2022-09-14T23:19:20.298Z,1.63
2022-09-14T23:22:09.414Z,1.92
2022-09-14T23:25:00.158Z,1.73
2022-09-14T23:27:48.815Z,1.90
2022-09-14T23:30:37.687Z,3.15
2022-09-14T23:33:26.837Z,1.90
2022-09-14T23:36:15.946Z,1.70
2022-09-14T23:39:05.074Z,1.40
2022-09-14T23:41:55.755Z,2.00
2022-09-14T23:44:44.851Z,1.52
2022-09-14T23:47:34.141Z,2.15
2022-09-14T23:50:23.508Z,1.48
2022-09-14T23:53:12.925Z,1.80
2022-09-14T23:56:02.403Z,1.70
2022-09-14T23:58:52.869Z,2.13
